Time;durP1;ratioP1;P1;durP2;ratioP2;P2;SDS_P1;SDS_P2;PMS_P1;PMS_P2;Temp;Humidity;BMP_temperature;BMP_pressure;BME280_temperature;BME280_humidity;BME280_pressure;Samples;Min_cycle;Max_cycle;Signal;HPM_P1;HPM_P2
2021/03/24 00:00:36;;;;;;;15.32;11.43;;;6.20;99.90;;;;;;5096612;28;20024;-78
2021/03/24 00:03:02;;;;;;;16.80;11.02;;;6.00;99.90;;;;;;5095603;28;20119;-78
2021/03/24 00:05:31;;;;;;;17.77;10.75;;;5.90;99.90;;;;;;5094925;28;20383;-78
2021/03/24 00:07:57;;;;;;;15.50;10.32;;;5.90;99.90;;;;;;5093877;28;20561;-78
2021/03/24 00:10:24;;;;;;;21.50;13.20;;;5.70;99.90;;;;;;5095441;28;20028;-78
2021/03/24 00:12:51;;;;;;;18.17;12.48;;;5.50;99.90;;;;;;5094465;28;20091;-78
2021/03/24 00:15:18;;;;;;;19.95;12.95;;;5.60;99.90;;;;;;5095469;28;20024;-78
2021/03/24 00:17:43;;;;;;;19.67;11.93;;;5.60;99.90;;;;;;5095491;28;20104;-78
2021/03/24 00:20:11;;;;;;;19.23;12.40;;;6.00;99.90;;;;;;5094592;28;20123;-78
2021/03/24 00:22:37;;;;;;;17.70;12.63;;;5.60;99.90;;;;;;5094161;28;20024;-78
2021/03/24 00:25:04;;;;;;;21.80;13.35;;;5.70;99.90;;;;;;5095419;28;20035;-78
2021/03/24 00:27:30;;;;;;;18.10;12.70;;;5.70;99.90;;;;;;5095290;28;20019;-78
2021/03/24 00:29:56;;;;;;;21.25;12.88;;;6.10;99.90;;;;;;5095335;28;20396;-78
2021/03/24 00:32:21;;;;;;;18.70;12.50;;;5.70;99.90;;;;;;5095333;28;20494;-78
2021/03/24 00:34:47;;;;;;;19.52;13.07;;;6.00;99.90;;;;;;5095191;28;20020;-78
2021/03/24 00:37:13;;;;;;;18.67;12.52;;;5.90;99.90;;;;;;5094929;28;20081;-78
2021/03/24 00:39:38;;;;;;;17.48;11.77;;;5.60;99.90;;;;;;5095029;28;20117;-78
2021/03/24 00:42:05;;;;;;;18.52;11.82;;;5.40;99.90;;;;;;5095088;28;20024;-78
2021/03/24 00:44:31;;;;;;;19.50;12.13;;;5.40;99.90;;;;;;5094721;28;20020;-78
2021/03/24 00:46:57;;;;;;;18.52;11.63;;;5.60;99.90;;;;;;5095087;28;20027;-78
2021/03/24 00:49:27;;;;;;;18.48;10.70;;;5.90;99.90;;;;;;5094943;28;20024;-78
2021/03/24 00:51:53;;;;;;;15.65;10.55;;;5.80;99.90;;;;;;5111554;28;20098;-78
2021/03/24 00:54:19;;;;;;;17.52;10.80;;;5.80;99.90;;;;;;5115459;28;20102;-78
2021/03/24 00:56:45;;;;;;;17.35;11.18;;;5.20;99.90;;;;;;5115024;28;20465;-78
2021/03/24 00:59:10;;;;;;;18.00;11.35;;;5.60;99.90;;;;;;5115129;28;20031;-78
2021/03/24 01:01:36;;;;;;;21.98;12.45;;;5.60;99.90;;;;;;5115240;28;20023;-78
2021/03/24 01:04:02;;;;;;;19.60;12.45;;;5.10;99.90;;;;;;5114856;28;20038;-78
2021/03/24 01:06:28;;;;;;;16.20;11.70;;;5.10;99.90;;;;;;5098062;28;20020;-78
2021/03/24 01:08:55;;;;;;;19.33;12.73;;;5.20;99.90;;;;;;5094689;28;20020;-78
2021/03/24 01:11:20;;;;;;;18.75;13.02;;;5.40;99.90;;;;;;5094622;28;20472;-78
2021/03/24 01:13:46;;;;;;;21.95;12.70;;;5.90;99.90;;;;;;5111758;28;20038;-78
2021/03/24 01:16:12;;;;;;;18.02;12.68;;;5.20;99.90;;;;;;5114924;28;20026;-78
2021/03/24 01:18:37;;;;;;;19.33;12.40;;;5.70;99.90;;;;;;5114801;28;20486;-78
2021/03/24 01:21:03;;;;;;;18.00;11.38;;;5.10;99.90;;;;;;5101818;28;20436;-78
2021/03/24 01:23:28;;;;;;;18.17;11.88;;;5.50;99.90;;;;;;5094131;28;20028;-78
2021/03/24 01:25:54;;;;;;;18.25;11.65;;;5.60;99.90;;;;;;5094232;28;20019;-78
2021/03/24 01:28:24;;;;;;;16.00;11.40;;;5.50;99.90;;;;;;5094321;28;20024;-78
2021/03/24 01:30:49;;;;;;;17.90;11.38;;;5.60;99.90;;;;;;5094112;28;20111;-78
2021/03/24 01:33:16;;;;;;;17.83;11.80;;;5.10;99.90;;;;;;5094027;28;20149;-78
2021/03/24 01:35:42;;;;;;;21.73;12.27;;;5.10;99.90;;;;;;5104105;28;20028;-78
2021/03/24 01:38:08;;;;;;;20.10;11.30;;;5.50;99.90;;;;;;5114444;28;20035;-78
2021/03/24 01:40:44;;;;;;;16.85;11.10;;;5.60;99.90;;;;;;5114211;28;20020;-78
2021/03/24 01:43:23;;;;;;;18.60;11.68;;;5.70;99.90;;;;;;5114316;28;20023;-78
2021/03/24 01:46:20;;;;;;;19.10;11.45;;;5.30;99.90;;;;;;5114210;28;20031;-78
2021/03/24 01:49:00;;;;;;;22.80;11.98;;;5.30;99.90;;;;;;5113968;28;20023;-78
2021/03/24 01:51:30;;;;;;;17.85;11.50;;;5.30;99.90;;;;;;5094484;28;20428;-78
2021/03/24 01:53:56;;;;;;;19.60;11.68;;;5.50;99.90;;;;;;5093480;28;20020;-78
2021/03/24 01:56:23;;;;;;;21.42;12.63;;;5.50;99.90;;;;;;5092401;28;20038;-78
2021/03/24 01:58:49;;;;;;;17.58;11.60;;;6.00;99.90;;;;;;5093298;28;20032;-78
2021/03/24 02:01:19;;;;;;;17.73;10.35;;;5.50;99.90;;;;;;5092275;28;20024;-78
2021/03/24 02:03:44;;;;;;;16.50;9.75;;;5.30;99.90;;;;;;5092375;28;20075;-78
2021/03/24 02:06:31;;;;;;;16.77;10.75;;;5.40;99.90;;;;;;5111253;28;20031;-78
2021/03/24 02:09:29;;;;;;;18.50;10.88;;;5.00;99.90;;;;;;5112553;28;20528;-78
2021/03/24 02:12:07;;;;;;;13.75;10.30;;;5.10;99.90;;;;;;5113690;28;20020;-78
2021/03/24 02:14:42;;;;;;;15.32;10.52;;;4.90;99.90;;;;;;5113603;28;20096;-78
2021/03/24 02:17:08;;;;;;;17.48;10.48;;;4.90;99.90;;;;;;5113556;28;20095;-78
2021/03/24 02:19:49;;;;;;;16.27;10.75;;;5.40;99.90;;;;;;5105054;28;20055;-78
2021/03/24 02:22:23;;;;;;;16.55;11.32;;;5.20;99.90;;;;;;5093310;28;20020;-78
2021/03/24 02:24:56;;;;;;;20.52;11.50;;;5.10;99.90;;;;;;5108376;28;20023;-78
2021/03/24 02:27:33;;;;;;;18.25;10.98;;;5.00;99.90;;;;;;5097921;28;20487;-78
2021/03/24 02:30:07;;;;;;;15.68;10.57;;;5.10;99.90;;;;;;5093838;28;20099;-78
2021/03/24 02:32:37;;;;;;;20.52;11.60;;;4.70;99.90;;;;;;5111790;28;20012;-78
2021/03/24 02:35:09;;;;;;;17.00;10.23;;;5.10;99.90;;;;;;5103402;28;20118;-78
2021/03/24 02:37:35;;;;;;;17.02;11.38;;;4.50;99.90;;;;;;5072824;28;20024;-78
2021/03/24 02:40:09;;;;;;;17.80;11.82;;;4.60;99.90;;;;;;5071822;28;20024;-78
2021/03/24 02:42:37;;;;;;;16.52;10.93;;;4.40;99.90;;;;;;5072739;28;20025;-78
2021/03/24 02:45:05;;;;;;;18.80;11.73;;;4.40;99.90;;;;;;5072239;28;20035;-78
2021/03/24 02:47:31;;;;;;;18.55;11.88;;;4.50;99.90;;;;;;5070971;28;20017;-78
2021/03/24 02:49:57;;;;;;;16.80;11.30;;;4.50;99.90;;;;;;5088151;28;20433;-78
2021/03/24 02:52:23;;;;;;;17.35;11.10;;;5.20;99.90;;;;;;5092864;28;20020;-78
2021/03/24 02:54:48;;;;;;;18.75;11.75;;;4.50;99.90;;;;;;5092584;28;20488;-78
2021/03/24 02:57:14;;;;;;;17.15;11.27;;;4.40;99.90;;;;;;5092671;28;20104;-78
2021/03/24 02:59:40;;;;;;;17.75;10.63;;;4.40;99.90;;;;;;5092637;28;20498;-78
2021/03/24 03:02:19;;;;;;;19.60;11.15;;;4.40;99.90;;;;;;5092149;28;20020;-78
2021/03/24 03:04:48;;;;;;;15.90;10.93;;;4.40;99.90;;;;;;5102057;28;20035;-78
2021/03/24 03:07:22;;;;;;;18.08;11.30;;;4.40;99.90;;;;;;5113189;28;20046;-78
2021/03/24 03:09:49;;;;;;;18.35;11.65;;;4.50;99.90;;;;;;5112626;28;20034;-78
2021/03/24 03:12:21;;;;;;;15.02;11.30;;;4.40;99.90;;;;;;5112894;28;20020;-78
2021/03/24 03:14:58;;;;;;;18.00;10.63;;;4.20;99.90;;;;;;5113797;28;20114;-78
2021/03/24 03:17:40;;;;;;;15.40;11.02;;;4.20;99.90;;;;;;5116962;28;20019;-78
2021/03/24 03:20:13;;;;;;;15.18;10.85;;;4.10;99.90;;;;;;5111862;28;20067;-78
2021/03/24 03:22:43;;;;;;;18.58;11.32;;;4.10;99.90;;;;;;5095436;28;20024;-78
2021/03/24 03:25:25;;;;;;;19.95;11.68;;;4.10;99.90;;;;;;5095457;28;20028;-78
2021/03/24 03:27:53;;;;;;;19.25;11.85;;;4.10;99.90;;;;;;5096592;28;20016;-78
2021/03/24 03:30:23;;;;;;;20.08;11.95;;;4.10;99.90;;;;;;5096517;28;20028;-78
2021/03/24 03:32:49;;;;;;;18.13;11.25;;;4.10;99.90;;;;;;5096060;28;20051;-78
2021/03/24 03:35:24;;;;;;;18.60;11.43;;;4.60;99.90;;;;;;5114586;28;20084;-78
2021/03/24 03:37:55;;;;;;;17.00;11.70;;;4.00;99.90;;;;;;5116617;28;20019;-78
2021/03/24 03:40:24;;;;;;;17.83;11.07;;;4.00;99.90;;;;;;5116710;28;20038;-78
2021/03/24 03:42:52;;;;;;;18.20;11.63;;;3.90;99.90;;;;;;5116681;28;20022;-78
2021/03/24 03:45:18;;;;;;;18.67;12.13;;;3.90;99.90;;;;;;5116222;27;20032;-78
2021/03/24 03:47:45;;;;;;;16.83;11.48;;;4.00;99.90;;;;;;5116078;28;20027;-78
2021/03/24 03:50:17;;;;;;;15.77;11.20;;;4.10;99.90;;;;;;5104241;28;20024;-78
2021/03/24 03:52:50;;;;;;;17.38;11.75;;;4.00;99.90;;;;;;5095913;28;20012;-78
2021/03/24 03:55:35;;;;;;;15.35;10.43;;;4.60;99.90;;;;;;5096061;28;20471;-78
2021/03/24 03:58:15;;;;;;;18.02;10.73;;;4.00;99.90;;;;;;5096021;28;20023;-78
2021/03/24 04:00:55;;;;;;;22.70;11.45;;;4.00;99.90;;;;;;5094402;28;20125;-78
2021/03/24 04:03:28;;;;;;;18.20;11.73;;;4.00;99.90;;;;;;5103622;28;20110;-78
2021/03/24 04:05:59;;;;;;;17.83;11.63;;;4.00;99.90;;;;;;5116136;28;20047;-78
2021/03/24 04:08:32;;;;;;;19.38;12.18;;;4.00;99.90;;;;;;5116080;28;20073;-78
2021/03/24 04:11:07;;;;;;;16.65;11.20;;;4.10;99.90;;;;;;5116014;28;20024;-78
2021/03/24 04:13:37;;;;;;;17.30;11.23;;;4.10;99.90;;;;;;5116206;28;20023;-78
2021/03/24 04:16:04;;;;;;;17.40;11.20;;;4.60;99.90;;;;;;5115683;28;20032;-78
2021/03/24 04:18:42;;;;;;;21.65;11.90;;;4.10;99.90;;;;;;5104033;28;20471;-78
2021/03/24 04:21:10;;;;;;;21.15;10.98;;;4.20;99.90;;;;;;5095257;28;20043;-78
2021/03/24 04:23:42;;;;;;;20.65;12.10;;;4.20;99.90;;;;;;5095377;28;20416;-78
2021/03/24 04:26:16;;;;;;;17.02;11.20;;;4.20;99.90;;;;;;5094926;28;20044;-78
2021/03/24 04:28:47;;;;;;;19.50;11.63;;;4.30;99.90;;;;;;5094998;28;20055;-78
2021/03/24 04:31:15;;;;;;;18.83;11.50;;;4.20;99.90;;;;;;5095265;28;20016;-78
2021/03/24 04:33:41;;;;;;;19.02;10.95;;;4.10;99.90;;;;;;5108760;28;20118;-78
2021/03/24 04:36:29;;;;;;;16.48;11.30;;;4.40;99.90;;;;;;5115607;28;20107;-78
2021/03/24 04:38:58;;;;;;;15.82;11.43;;;4.20;99.90;;;;;;5115602;28;20115;-78
2021/03/24 04:41:29;;;;;;;18.00;12.35;;;4.70;99.90;;;;;;5115461;28;20051;-78
2021/03/24 04:44:18;;;;;;;20.30;12.07;;;4.20;99.90;;;;;;5115094;28;20035;-78
2021/03/24 04:46:46;;;;;;;20.95;10.98;;;4.10;99.90;;;;;;5115004;28;20028;-78
2021/03/24 04:49:22;;;;;;;17.85;11.45;;;4.10;99.90;;;;;;5115285;28;20174;-78
2021/03/24 04:51:48;;;;;;;16.02;11.00;;;4.00;99.90;;;;;;5115147;28;20094;-78
2021/03/24 04:54:32;;;;;;;17.83;11.02;;;3.80;99.90;;;;;;5115237;28;20425;-78
2021/03/24 04:57:06;;;;;;;20.08;11.10;;;3.70;99.90;;;;;;5115164;28;20077;-78
2021/03/24 04:59:41;;;;;;;17.48;11.60;;;3.80;99.90;;;;;;5115019;28;20111;-79
2021/03/24 05:02:20;;;;;;;18.45;10.98;;;3.90;99.90;;;;;;5114482;28;20038;-78
2021/03/24 05:05:13;;;;;;;15.50;10.68;;;3.70;99.90;;;;;;5113750;28;20386;-78
2021/03/24 05:07:54;;;;;;;19.63;11.43;;;3.60;99.90;;;;;;5114950;28;20475;-78
2021/03/24 05:10:26;;;;;;;18.38;11.10;;;3.60;99.90;;;;;;5115006;28;20484;-78
2021/03/24 05:13:12;;;;;;;20.15;11.13;;;3.60;99.90;;;;;;5114777;28;20024;-78
2021/03/24 05:15:42;;;;;;;20.60;11.30;;;3.60;99.90;;;;;;5114895;28;20040;-78
2021/03/24 05:18:12;;;;;;;18.88;11.57;;;3.60;99.90;;;;;;5104977;28;20066;-78
2021/03/24 05:21:23;;;;;;;16.52;11.20;;;3.60;99.90;;;;;;5093899;28;20044;-78
2021/03/24 05:23:57;;;;;;;22.60;11.57;;;3.50;99.90;;;;;;5093921;28;20037;-78
2021/03/24 05:26:45;;;;;;;26.25;15.05;;;3.60;99.90;;;;;;5094302;28;20042;-78
2021/03/24 05:29:21;;;;;;;26.08;15.63;;;3.50;99.90;;;;;;5094099;28;20057;-78
2021/03/24 05:31:52;;;;;;;25.63;15.63;;;3.50;99.90;;;;;;5096148;28;20040;-78
2021/03/24 05:34:31;;;;;;;21.40;13.80;;;3.50;99.90;;;;;;5114336;28;20106;-78
2021/03/24 05:36:59;;;;;;;20.40;12.85;;;3.50;99.90;;;;;;5114017;28;20372;-78
2021/03/24 05:39:32;;;;;;;22.23;12.95;;;3.50;99.90;;;;;;5113960;28;20072;-78
2021/03/24 05:42:19;;;;;;;17.52;11.50;;;3.60;99.90;;;;;;5114177;28;20028;-78
2021/03/24 05:44:47;;;;;;;18.55;11.73;;;3.60;99.90;;;;;;5114052;28;20139;-78
2021/03/24 05:47:51;;;;;;;24.42;11.70;;;3.60;99.90;;;;;;5105930;28;20027;-78
2021/03/24 05:50:41;;;;;;;20.23;11.38;;;3.60;99.90;;;;;;5093709;28;20016;-78
2021/03/24 05:53:43;;;;;;;20.10;12.20;;;3.50;99.90;;;;;;5093540;28;20028;-78
2021/03/24 05:56:20;;;;;;;18.58;11.30;;;3.30;99.90;;;;;;5093334;28;20052;-78
2021/03/24 05:59:01;;;;;;;23.15;11.77;;;3.40;99.90;;;;;;5093548;28;20030;-78
2021/03/24 06:01:45;;;;;;;17.85;11.75;;;3.40;99.90;;;;;;5093155;28;20027;-78
2021/03/24 06:04:33;;;;;;;19.40;11.95;;;3.30;99.90;;;;;;5084288;28;20030;-78
2021/03/24 06:07:17;;;;;;;18.88;12.10;;;3.40;99.90;;;;;;5099324;28;20007;-78
2021/03/24 06:10:05;;;;;;;21.77;13.80;;;3.30;99.90;;;;;;5101936;28;20097;-78
2021/03/24 06:12:52;;;;;;;22.05;12.75;;;3.30;99.90;;;;;;5092658;28;20028;-77
2021/03/24 06:15:33;;;;;;;20.27;12.27;;;3.30;99.90;;;;;;5092277;28;20035;-77
2021/03/24 06:18:22;;;;;;;19.92;11.82;;;3.40;99.90;;;;;;5101507;28;20117;-77
2021/03/24 06:20:58;;;;;;;20.38;12.13;;;3.50;99.90;;;;;;5099562;28;20056;-77
2021/03/24 06:23:41;;;;;;;21.20;11.77;;;3.60;99.90;;;;;;5098113;28;20059;-77
2021/03/24 06:26:20;;;;;;;19.13;11.57;;;3.70;99.90;;;;;;5104180;28;20507;-78
2021/03/24 06:28:53;;;;;;;18.23;11.57;;;3.80;99.90;;;;;;5100110;28;20055;-78
2021/03/24 06:31:40;;;;;;;19.77;12.13;;;3.80;99.90;;;;;;5097920;28;20105;-77
2021/03/24 06:34:06;;;;;;;19.92;11.15;;;3.90;99.90;;;;;;5113215;28;20027;-78
2021/03/24 06:37:14;;;;;;;18.08;11.90;;;4.00;99.90;;;;;;5102601;28;20024;-78
2021/03/24 06:39:57;;;;;;;17.17;11.35;;;4.20;99.90;;;;;;5095875;28;20019;-78
2021/03/24 06:42:41;;;;;;;18.40;12.45;;;4.20;99.90;;;;;;5112511;28;20031;-78
2021/03/24 06:45:31;;;;;;;20.60;12.10;;;4.20;99.90;;;;;;5112429;28;20039;-78
2021/03/24 06:48:33;;;;;;;20.40;12.20;;;4.30;99.90;;;;;;5095932;28;20032;-77
2021/03/24 06:51:23;;;;;;;18.05;12.13;;;4.30;99.90;;;;;;5092232;28;20533;-78
2021/03/24 06:54:11;;;;;;;20.77;12.70;;;4.40;99.90;;;;;;5091985;28;20035;-77
2021/03/24 06:57:04;;;;;;;22.63;12.25;;;4.40;99.90;;;;;;5092410;28;20028;-78
2021/03/24 06:59:56;;;;;;;23.45;12.60;;;4.50;99.90;;;;;;5092094;28;20035;-78
2021/03/24 07:02:51;;;;;;;22.35;12.23;;;4.70;99.90;;;;;;5092523;28;20028;-78
2021/03/24 07:05:41;;;;;;;21.77;12.77;;;5.00;99.90;;;;;;5092309;28;20078;-78
2021/03/24 07:08:21;;;;;;;18.55;12.05;;;5.40;99.90;;;;;;5092734;28;20017;-77
2021/03/24 07:10:52;;;;;;;21.00;11.70;;;5.60;99.90;;;;;;5092991;28;20048;-77
2021/03/24 07:13:47;;;;;;;17.30;12.05;;;5.60;99.90;;;;;;5092790;28;20077;-78
2021/03/24 07:16:37;;;;;;;20.55;12.02;;;5.60;99.90;;;;;;5095014;28;20043;-77
2021/03/24 07:19:27;;;;;;;18.98;12.18;;;5.70;99.90;;;;;;5110998;28;20039;-77
2021/03/24 07:22:14;;;;;;;26.05;12.68;;;5.80;99.90;;;;;;5091759;28;20107;-77
2021/03/24 07:25:11;;;;;;;18.10;12.00;;;5.90;99.90;;;;;;5092146;28;20027;-77
2021/03/24 07:27:57;;;;;;;22.20;12.98;;;5.80;99.90;;;;;;5092437;28;20024;-79
2021/03/24 07:30:51;;;;;;;21.73;12.65;;;5.90;99.90;;;;;;5090264;28;20031;-77
2021/03/24 07:33:36;;;;;;;23.80;13.10;;;6.00;99.90;;;;;;5048141;28;20033;-78
2021/03/24 07:36:29;;;;;;;24.10;13.23;;;6.20;99.90;;;;;;5049823;28;20109;-77
2021/03/24 07:39:13;;;;;;;24.27;13.73;;;6.00;99.90;;;;;;5032880;28;20567;-77
2021/03/24 07:42:07;;;;;;;22.70;13.85;;;6.20;99.90;;;;;;5049745;28;20408;-77
2021/03/24 07:44:51;;;;;;;23.42;13.60;;;6.40;99.90;;;;;;5049396;28;20459;-78
2021/03/24 07:47:28;;;;;;;21.75;12.95;;;6.40;99.90;;;;;;5088409;28;20097;-77
2021/03/24 07:50:12;;;;;;;27.13;12.68;;;6.50;99.90;;;;;;5090098;28;20061;-77
2021/03/24 07:53:08;;;;;;;20.90;13.13;;;6.70;99.90;;;;;;5089503;28;20111;-78
2021/03/24 07:55:57;;;;;;;21.83;12.93;;;6.80;99.90;;;;;;5089770;28;20077;-77
2021/03/24 07:59:10;;;;;;;21.50;12.82;;;6.80;99.90;;;;;;5089849;28;20068;-77
2021/03/24 08:01:36;;;;;;;23.27;13.95;;;7.00;99.90;;;;;;5077225;28;20028;-77
2021/03/24 08:04:38;;;;;;;21.67;13.82;;;7.40;99.90;;;;;;5073349;28;20045;-77
2021/03/24 08:07:38;;;;;;;26.73;13.88;;;7.20;99.90;;;;;;5072896;28;20036;-77
2021/03/24 08:10:28;;;;;;;23.05;12.32;;;7.40;99.90;;;;;;5074118;28;20142;-77
2021/03/24 08:13:18;;;;;;;24.88;13.80;;;7.50;99.90;;;;;;5075910;28;20016;-77
2021/03/24 08:16:04;;;;;;;22.63;12.68;;;7.70;99.90;;;;;;5075741;28;20029;-77
2021/03/24 08:18:48;;;;;;;17.67;12.45;;;7.80;99.90;;;;;;5075165;28;20017;-77
2021/03/24 08:21:43;;;;;;;24.02;14.80;;;8.00;99.90;;;;;;5088729;28;20064;-77
2021/03/24 08:24:53;;;;;;;22.27;13.98;;;8.00;99.90;;;;;;5095566;28;20035;-77
2021/03/24 08:27:22;;;;;;;23.13;14.18;;;7.90;99.90;;;;;;5072864;28;20512;-77
2021/03/24 08:30:16;;;;;;;25.33;14.73;;;8.10;99.90;;;;;;5072655;28;20040;-78
2021/03/24 08:32:56;;;;;;;26.27;14.60;;;8.60;99.90;;;;;;5072155;28;20032;-78
2021/03/24 08:35:42;;;;;;;25.80;14.65;;;8.30;99.90;;;;;;5072535;28;20064;-78
2021/03/24 08:39:04;;;;;;;22.85;14.95;;;8.50;99.90;;;;;;5072726;28;20028;-78
2021/03/24 08:41:54;;;;;;;21.90;14.23;;;8.60;99.90;;;;;;5013194;28;20525;-78
2021/03/24 08:44:29;;;;;;;22.77;14.77;;;8.70;99.90;;;;;;5012876;28;20450;-78
2021/03/24 08:47:01;;;;;;;25.67;14.77;;;8.90;99.90;;;;;;5012885;28;20037;-78
2021/03/24 08:49:30;;;;;;;22.42;15.00;;;9.00;99.90;;;;;;5012874;28;20119;-78
2021/03/24 08:52:04;;;;;;;23.88;14.18;;;9.00;99.90;;;;;;5012436;28;20045;-78
2021/03/24 08:54:54;;;;;;;22.33;15.07;;;9.00;99.90;;;;;;5029012;28;20399;-78
2021/03/24 08:57:31;;;;;;;20.90;14.35;;;9.20;99.90;;;;;;5012669;28;20033;-78
2021/03/24 09:00:08;;;;;;;21.10;13.30;;;9.40;99.90;;;;;;5012717;28;20042;-78
2021/03/24 09:02:55;;;;;;;23.08;13.60;;;9.40;99.90;;;;;;5052161;28;20057;-78
2021/03/24 09:05:28;;;;;;;19.42;12.07;;;9.40;99.90;;;;;;5051883;28;20171;-78
2021/03/24 09:07:57;;;;;;;22.88;14.43;;;9.60;99.90;;;;;;5052036;28;20601;-78
2021/03/24 09:10:45;;;;;;;22.90;13.75;;;9.80;99.90;;;;;;5035449;28;20017;-78
2021/03/24 09:13:17;;;;;;;23.08;13.55;;;10.00;99.90;;;;;;5093364;28;20020;-78
2021/03/24 09:15:46;;;;;;;20.95;14.20;;;10.20;99.90;;;;;;5094307;28;20024;-78
2021/03/24 09:18:21;;;;;;;22.85;12.55;;;10.30;99.90;;;;;;5094503;28;20031;-78
2021/03/24 09:21:11;;;;;;;19.50;12.90;;;10.60;99.90;;;;;;5093600;28;20040;-78
2021/03/24 09:23:58;;;;;;;17.73;12.05;;;10.70;99.90;;;;;;5094128;28;20101;-78
2021/03/24 09:26:45;;;;;;;19.15;12.60;;;11.10;99.90;;;;;;5094363;28;20027;-78
2021/03/24 09:29:35;;;;;;;19.77;12.32;;;11.90;99.90;;;;;;5094582;28;20028;-78
2021/03/24 09:32:20;;;;;;;19.90;12.32;;;16.10;99.90;;;;;;5094104;28;20129;-78
2021/03/24 09:35:18;;;;;;;19.98;12.80;;;21.20;99.90;;;;;;5093603;28;20024;-78
2021/03/24 09:38:08;;;;;;;19.27;12.98;;;24.50;99.90;;;;;;5088804;28;20043;-78
2021/03/24 09:40:40;;;;;;;19.15;12.85;;;26.60;99.90;;;;;;5093886;28;20107;-79
2021/03/24 09:43:17;;;;;;;19.45;12.93;;;27.40;99.90;;;;;;5093839;28;20090;-79
2021/03/24 09:45:43;;;;;;;19.02;11.68;;;28.10;99.90;;;;;;5093518;28;20035;-79
2021/03/24 09:48:15;;;;;;;16.15;12.45;;;29.00;99.90;;;;;;5092246;28;20016;-79
2021/03/24 09:50:44;;;;;;;14.82;11.35;;;29.90;99.90;;;;;;5093727;28;20020;-79
2021/03/24 09:53:20;;;;;;;17.02;12.05;;;30.40;99.90;;;;;;5093877;28;20028;-79
2021/03/24 09:55:55;;;;;;;14.68;10.65;;;31.30;99.90;;;;;;5093394;28;20043;-79
2021/03/24 09:58:23;;;;;;;14.57;10.25;;;31.80;99.90;;;;;;5093738;28;20025;-79
2021/03/24 10:01:15;;;;;;;12.15;10.30;;;32.20;99.90;;;;;;5093587;28;20016;-79
2021/03/24 10:03:44;;;;;;;13.57;9.93;;;30.90;99.90;;;;;;5089442;28;20032;-79
2021/03/24 10:06:25;;;;;;;13.20;9.93;;;31.50;99.90;;;;;;5093568;28;20440;-79
2021/03/24 10:09:15;;;;;;;15.27;10.68;;;31.90;99.90;;;;;;5093403;28;20384;-79
2021/03/24 10:11:56;;;;;;;15.80;10.25;;;32.40;99.90;;;;;;5093419;28;20030;-79
2021/03/24 10:14:28;;;;;;;14.23;10.60;;;32.70;99.90;;;;;;5093454;28;20028;-80
2021/03/24 10:17:00;;;;;;;13.43;10.27;;;32.40;99.90;;;;;;5092827;28;20436;-80
2021/03/24 10:19:43;;;;;;;16.15;10.73;;;32.50;99.90;;;;;;5093011;28;20123;-80
2021/03/24 10:22:23;;;;;;;13.75;10.10;;;33.50;99.90;;;;;;5093217;28;20031;-80
2021/03/24 10:25:38;;;;;;;13.10;10.15;;;34.30;99.90;;;;;;5092550;28;20031;-80
2021/03/24 10:28:32;;;;;;;13.63;10.38;;;34.30;99.90;;;;;;5090610;28;20169;-80
2021/03/24 10:31:03;;;;;;;13.40;11.13;;;34.70;99.90;;;;;;5092908;28;20073;-80
2021/03/24 10:33:37;;;;;;;12.63;10.20;;;33.80;99.90;;;;;;5092795;28;20016;-80
2021/03/24 10:36:18;;;;;;;13.13;10.70;;;34.20;99.90;;;;;;5093030;28;20027;-80
2021/03/24 10:38:57;;;;;;;14.75;10.75;;;34.60;99.90;;;;;;5092952;28;20030;-80
2021/03/24 10:41:59;;;;;;;12.52;10.88;;;35.50;99.90;;;;;;5092904;28;20024;-80
2021/03/24 10:44:25;;;;;;;13.75;10.60;;;36.00;99.90;;;;;;5092547;28;20032;-80
2021/03/24 10:47:11;;;;;;;12.63;10.65;;;35.30;99.90;;;;;;5092451;28;20529;-80
2021/03/24 10:50:07;;;;;;;11.93;9.85;;;35.10;99.90;;;;;;5092896;28;20065;-80
2021/03/24 10:52:42;;;;;;;13.95;12.55;;;35.70;99.90;;;;;;5092621;28;20047;-80
2021/03/24 10:55:19;;;;;;;12.00;9.73;;;36.60;99.90;;;;;;5092689;28;20054;-80
2021/03/24 10:58:03;;;;;;;13.25;9.65;;;38.30;99.90;;;;;;5092642;28;20042;-80
2021/03/24 11:00:41;;;;;;;12.20;9.20;;;37.40;99.90;;;;;;5092475;28;20048;-80
2021/03/24 11:03:22;;;;;;;15.50;9.90;;;38.40;99.90;;;;;;5092528;28;20032;-80
2021/03/24 11:06:07;;;;;;;11.48;9.40;;;38.70;99.90;;;;;;5092443;28;20476;-80
2021/03/24 11:08:57;;;;;;;10.05;8.50;;;39.10;99.90;;;;;;5092129;28;20511;-80
2021/03/24 11:11:30;;;;;;;11.20;8.82;;;37.50;99.90;;;;;;5092596;28;20497;-80
2021/03/24 11:14:07;;;;;;;13.70;8.95;;;37.30;99.90;;;;;;5092220;28;20035;-80
2021/03/24 11:16:48;;;;;;;11.05;8.77;;;36.10;99.90;;;;;;5092235;28;20415;-80
2021/03/24 11:19:22;;;;;;;10.95;9.20;;;36.30;99.90;;;;;;5092365;28;20070;-80
2021/03/24 11:21:59;;;;;;;11.82;9.15;;;36.60;99.90;;;;;;5092280;28;20028;-80
2021/03/24 11:24:51;;;;;;;11.20;8.63;;;37.10;99.90;;;;;;5092290;28;20032;-80
2021/03/24 11:27:49;;;;;;;10.45;8.27;;;37.30;99.90;;;;;;5092364;28;20024;-80
2021/03/24 11:30:37;;;;;;;10.13;7.63;;;36.00;99.90;;;;;;5069677;28;20037;-80
2021/03/24 11:33:06;;;;;;;10.35;7.63;;;37.50;99.90;;;;;;5070039;28;20167;-80
2021/03/24 11:35:40;;;;;;;10.43;7.80;;;37.90;99.90;;;;;;5070521;28;20559;-80
2021/03/24 11:38:37;;;;;;;8.90;7.20;;;38.20;99.90;;;;;;5073861;28;20393;-80
2021/03/24 11:41:11;;;;;;;10.70;6.97;;;38.40;99.90;;;;;;5073788;28;20037;-80
2021/03/24 11:43:41;;;;;;;8.00;6.55;;;38.10;99.90;;;;;;5073470;28;20051;-80
2021/03/24 11:46:18;;;;;;;8.98;6.88;;;38.60;99.90;;;;;;5073779;28;20484;-80
2021/03/24 11:49:15;;;;;;;7.30;6.25;;;39.30;99.90;;;;;;5073834;28;20540;-80
2021/03/24 11:51:59;;;;;;;7.20;5.82;;;38.60;99.90;;;;;;5073690;28;20020;-80
2021/03/24 11:54:33;;;;;;;7.53;5.93;;;39.30;99.90;;;;;;5073740;28;20451;-80
2021/03/24 11:57:11;;;;;;;7.40;5.60;;;37.90;99.90;;;;;;5073489;28;20501;-80
2021/03/24 11:59:51;;;;;;;8.63;6.15;;;37.90;99.90;;;;;;5073350;28;20067;-80
2021/03/24 12:02:49;;;;;;;8.50;6.38;;;38.10;99.90;;;;;;5073547;28;20056;-80
2021/03/24 12:05:18;;;;;;;8.40;6.90;;;37.60;99.90;;;;;;5078729;28;20548;-80
2021/03/24 12:07:54;;;;;;;7.60;6.57;;;36.60;99.90;;;;;;5095669;28;20527;-80
2021/03/24 12:10:37;;;;;;;7.65;6.18;;;36.80;99.90;;;;;;5095874;28;20438;-80
2021/03/24 12:13:19;;;;;;;8.50;6.65;;;36.80;99.90;;;;;;5095327;28;20022;-80
2021/03/24 12:15:46;;;;;;;8.07;6.75;;;37.90;99.90;;;;;;5095746;28;20438;-80
2021/03/24 12:18:16;;;;;;;7.93;6.30;;;38.20;99.90;;;;;;5095776;28;20388;-80
2021/03/24 12:20:48;;;;;;;8.20;6.28;;;37.30;99.90;;;;;;5095239;28;20044;-80
2021/03/24 12:23:14;;;;;;;9.18;6.38;;;37.80;99.90;;;;;;5095358;28;20028;-80
2021/03/24 12:25:45;;;;;;;8.63;6.65;;;36.80;99.90;;;;;;5095491;28;20465;-80
2021/03/24 12:28:11;;;;;;;8.52;7.03;;;35.50;99.90;;;;;;5095139;28;20048;-80
2021/03/24 12:30:44;;;;;;;9.32;7.60;;;35.30;99.90;;;;;;5095264;28;20062;-80
2021/03/24 12:33:22;;;;;;;9.02;7.70;;;35.50;99.90;;;;;;5095186;28;20028;-80
2021/03/24 12:36:09;;;;;;;8.77;7.20;;;35.50;99.90;;;;;;5095240;28;20016;-80
2021/03/24 12:38:49;;;;;;;8.13;7.25;;;36.70;99.90;;;;;;5094810;28;20036;-80
2021/03/24 12:41:24;;;;;;;9.25;7.10;;;35.30;99.90;;;;;;5095238;28;20016;-80
2021/03/24 12:43:50;;;;;;;9.85;7.47;;;34.30;99.90;;;;;;5094639;28;20024;-80
2021/03/24 12:46:19;;;;;;;10.43;7.55;;;35.20;99.90;;;;;;5094771;28;20383;-80
2021/03/24 12:48:59;;;;;;;8.77;7.30;;;36.00;99.90;;;;;;5095197;28;20026;-80
2021/03/24 12:51:28;;;;;;;9.48;7.40;;;36.10;99.90;;;;;;5095125;28;20087;-80
2021/03/24 12:53:56;;;;;;;9.48;7.75;;;34.10;99.90;;;;;;5094907;28;20100;-80
2021/03/24 12:56:43;;;;;;;9.80;7.28;;;33.40;99.90;;;;;;5094646;28;20028;-80
2021/03/24 12:59:38;;;;;;;7.65;6.80;;;33.70;99.90;;;;;;5093260;28;20476;-80
2021/03/24 13:02:36;;;;;;;12.00;8.15;;;34.20;99.90;;;;;;5094579;28;20020;-80
2021/03/24 13:05:10;;;;;;;8.27;7.47;;;34.60;99.90;;;;;;5094563;28;20059;-80
2021/03/24 13:07:38;;;;;;;13.02;7.88;;;33.80;99.90;;;;;;5094760;28;20024;-80
2021/03/24 13:10:10;;;;;;;10.77;7.78;;;33.10;99.90;;;;;;5094432;28;20051;-80
2021/03/24 13:12:43;;;;;;;8.32;7.35;;;33.40;99.90;;;;;;5094244;28;20028;-80
2021/03/24 13:15:31;;;;;;;8.02;7.20;;;34.10;99.90;;;;;;5094523;28;20089;-80
2021/03/24 13:18:03;;;;;;;10.93;6.93;;;33.50;99.90;;;;;;5094444;28;20077;-80
2021/03/24 13:20:29;;;;;;;9.85;7.53;;;31.60;99.90;;;;;;5093997;28;20040;-80
2021/03/24 13:23:12;;;;;;;9.50;7.40;;;31.40;99.90;;;;;;5094467;28;20043;-80
2021/03/24 13:25:38;;;;;;;10.15;6.65;;;31.30;99.90;;;;;;5094200;28;20028;-80
2021/03/24 13:28:16;;;;;;;9.32;7.18;;;32.20;99.90;;;;;;5094134;28;20488;-80
2021/03/24 13:30:47;;;;;;;9.40;7.45;;;32.20;99.90;;;;;;5094176;28;20369;-80